createdAt,value
2019-06-27T00:01:00.244Z,98524.53
2019-06-27T00:03:30.537Z,98526.41
2019-06-27T00:06:00.863Z,98534.16
2019-06-27T00:08:31.344Z,98533.12
2019-06-27T00:11:01.649Z,98536.75
2019-06-27T00:13:31.863Z,98539.20
2019-06-27T00:16:02.173Z,98536.52
2019-06-27T00:18:32.437Z,98531.40
2019-06-27T00:21:02.676Z,98531.45
2019-06-27T00:23:32.897Z,98533.52
2019-06-27T00:26:03.192Z,98533.33
2019-06-27T00:28:33.385Z,98533.70
2019-06-27T00:31:03.619Z,98536.41
2019-06-27T00:33:33.851Z,98542.59
2019-06-27T00:36:04.065Z,98539.76
2019-06-27T00:38:34.276Z,98539.75
2019-06-27T00:41:04.587Z,98540.25
2019-06-27T00:43:34.846Z,98542.44
2019-06-27T00:46:05.162Z,98542.78
2019-06-27T00:48:35.381Z,98542.34
2019-06-27T00:51:05.632Z,98542.69
2019-06-27T00:53:35.826Z,98545.52
2019-06-27T00:56:06.133Z,98546.84
2019-06-27T00:58:36.405Z,98547.34
2019-06-27T01:01:06.697Z,98549.84
2019-06-27T01:03:36.894Z,98547.18
2019-06-27T01:06:07.177Z,98553.23
2019-06-27T01:08:37.452Z,98553.47
2019-06-27T01:11:07.656Z,98559.49
2019-06-27T01:13:37.893Z,98554.72
2019-06-27T01:16:08.228Z,98557.25
2019-06-27T01:18:38.465Z,98561.63
2019-06-27T01:21:08.730Z,98559.31
2019-06-27T01:23:39.012Z,98561.03
2019-06-27T01:26:09.235Z,98557.36
2019-06-27T01:28:39.541Z,98561.34
2019-06-27T01:31:09.780Z,98563.34
2019-06-27T01:33:40.038Z,98563.69
2019-06-27T01:36:10.340Z,98564.08
2019-06-27T01:38:40.573Z,98566.27
2019-06-27T01:41:10.818Z,98566.36
2019-06-27T01:43:41.048Z,98564.27
2019-06-27T01:46:11.248Z,98570.79
2019-06-27T01:48:41.472Z,98573.98
2019-06-27T01:51:11.723Z,98574.86
2019-06-27T01:53:41.944Z,98575.19
2019-06-27T01:56:12.152Z,98575.06
2019-06-27T01:58:42.443Z,98574.39
2019-06-27T02:01:12.746Z,98579.38
2019-06-27T02:03:42.957Z,98581.56
2019-06-27T02:06:13.184Z,98591.08
2019-06-27T02:08:43.416Z,98589.11
2019-06-27T02:11:13.734Z,98591.31
2019-06-27T02:13:43.944Z,98591.70
2019-06-27T02:16:14.267Z,98592.23
2019-06-27T02:18:44.468Z,98597.08
2019-06-27T02:21:14.706Z,98592.46
2019-06-27T02:23:44.992Z,98598.14
2019-06-27T02:26:15.231Z,98598.31
2019-06-27T02:28:45.449Z,98596.71
2019-06-27T02:31:15.658Z,98594.08
2019-06-27T02:33:45.855Z,98594.45
2019-06-27T02:36:16.079Z,98594.31
2019-06-27T02:38:46.291Z,98589.20
2019-06-27T02:41:16.518Z,98588.87
2019-06-27T02:43:47.076Z,98585.56
2019-06-27T02:46:17.369Z,98579.78
2019-06-27T02:48:47.638Z,98583.52
2019-06-27T02:51:17.881Z,98585.55
2019-06-27T02:53:48.104Z,98583.45
2019-06-27T02:56:18.370Z,98585.05
2019-06-27T02:58:48.578Z,98578.49
2019-06-27T03:01:18.812Z,98580.91
2019-06-27T03:03:49.032Z,98578.28
2019-06-27T03:06:19.266Z,98582.79
2019-06-27T03:08:49.485Z,98576.21
2019-06-27T03:11:19.860Z,98575.25
2019-06-27T03:13:50.211Z,98577.07
2019-06-27T03:16:20.495Z,98568.25
2019-06-27T03:18:50.783Z,98569.42
2019-06-27T03:21:21.070Z,98571.14
2019-06-27T03:23:51.274Z,98574.17
2019-06-27T03:26:21.568Z,98584.58
2019-06-27T03:28:54.078Z,98584.47
2019-06-27T03:31:23.713Z,98582.52
2019-06-27T03:33:53.963Z,98585.03
2019-06-27T03:36:24.238Z,98585.90
2019-06-27T03:38:54.453Z,98586.55
2019-06-27T03:41:24.685Z,98585.55
2019-06-27T03:43:54.953Z,98584.22
2019-06-27T03:46:25.176Z,98589.17
2019-06-27T03:48:55.399Z,98594.30
2019-06-27T03:51:25.632Z,98588.62
2019-06-27T03:53:55.850Z,98583.27
2019-06-27T03:56:26.094Z,98580.61
2019-06-27T03:59:11.558Z,98590.77
2019-06-27T04:01:28.425Z,98598.09
2019-06-27T04:03:58.645Z,98598.09
2019-06-27T04:06:28.869Z,98595.79
2019-06-27T04:08:59.668Z,98598.61
2019-06-27T04:11:30.007Z,98606.96
2019-06-27T04:14:00.498Z,98601.88
2019-06-27T04:16:30.736Z,98600.89
2019-06-27T04:19:01.131Z,98601.14
2019-06-27T04:21:31.448Z,98600.78
2019-06-27T04:24:01.652Z,98601.58
2019-06-27T04:26:32.137Z,98602.02
2019-06-27T04:29:02.355Z,98601.81
2019-06-27T04:31:32.550Z,98605.08
2019-06-27T04:34:02.781Z,98605.67
2019-06-27T04:36:33.054Z,98599.30
2019-06-27T04:39:03.549Z,98609.40
2019-06-27T04:41:33.750Z,98605.92
2019-06-27T04:44:03.980Z,98611.19
2019-06-27T04:46:34.206Z,98610.72
2019-06-27T04:49:04.441Z,98609.44
2019-06-27T04:51:34.666Z,98609.66
2019-06-27T04:54:05.010Z,98611.34
2019-06-27T04:56:35.241Z,98615.66
2019-06-27T04:59:05.505Z,98617.67
2019-06-27T05:01:35.769Z,98622.77
2019-06-27T05:04:05.951Z,98620.23
2019-06-27T05:06:36.281Z,98628.15
2019-06-27T05:09:08.321Z,98628.55
2019-06-27T05:11:40.239Z,98631.28
2019-06-27T05:14:10.488Z,98629.06
2019-06-27T05:16:40.709Z,98628.19
2019-06-27T05:19:10.929Z,98623.38
2019-06-27T05:21:41.134Z,98625.75
2019-06-27T05:24:11.427Z,98629.56
2019-06-27T05:26:41.734Z,98625.05
2019-06-27T05:29:11.958Z,98622.52
2019-06-27T05:31:42.246Z,98627.50
2019-06-27T05:34:12.502Z,98633.12
2019-06-27T05:36:42.756Z,98627.73
2019-06-27T05:39:13.044Z,98630.17
2019-06-27T05:41:43.310Z,98629.66
2019-06-27T05:44:13.508Z,98630.31
2019-06-27T05:46:43.716Z,98634.11
2019-06-27T05:49:13.934Z,98643.22
2019-06-27T05:51:44.162Z,98647.65
2019-06-27T05:54:14.429Z,98654.72
2019-06-27T05:56:44.686Z,98656.42
2019-06-27T05:59:14.933Z,98655.82
2019-06-27T06:01:45.261Z,98650.08
2019-06-27T06:04:15.508Z,98657.36
2019-06-27T06:06:45.776Z,98661.25
2019-06-27T06:09:16.076Z,98662.13
2019-06-27T06:11:46.276Z,98662.46
2019-06-27T06:14:16.479Z,98668.49
2019-06-27T06:16:46.745Z,98667.05
2019-06-27T06:19:16.309Z,98667.28
2019-06-27T06:21:46.415Z,98671.16
2019-06-27T06:24:16.702Z,98672.48
2019-06-27T06:26:46.903Z,98675.14
2019-06-27T06:29:17.126Z,98679.45
2019-06-27T06:31:49.415Z,98683.77
2019-06-27T06:34:19.245Z,98683.55
2019-06-27T06:36:48.705Z,98680.48
2019-06-27T06:39:18.062Z,98680.71
2019-06-27T06:41:48.125Z,98680.35
2019-06-27T06:44:18.347Z,98676.80
2019-06-27T06:46:48.669Z,98680.05
2019-06-27T06:49:18.889Z,98681.70
2019-06-27T06:51:49.094Z,98676.86
2019-06-27T06:54:19.393Z,98679.11
2019-06-27T06:56:49.584Z,98667.37
2019-06-27T06:59:19.929Z,98666.81
2019-06-27T07:01:50.096Z,98668.21
2019-06-27T07:04:20.329Z,98670.73
2019-06-27T07:06:50.542Z,98675.27
2019-06-27T07:09:20.762Z,98669.16
2019-06-27T07:11:51.062Z,98671.74
2019-06-27T07:14:21.286Z,98666.34
2019-06-27T07:16:51.529Z,98672.87
2019-06-27T07:19:21.752Z,98672.36
2019-06-27T07:21:52.037Z,98672.29
2019-06-27T07:24:22.519Z,98667.95
2019-06-27T07:26:52.849Z,98670.97
2019-06-27T07:29:23.087Z,98660.80
2019-06-27T07:31:53.289Z,98662.93
2019-06-27T07:34:23.579Z,98659.19
2019-06-27T07:36:53.814Z,98660.53
2019-06-27T07:39:24.141Z,98658.42
2019-06-27T07:41:54.414Z,98659.93
2019-06-27T07:44:24.882Z,98650.08
2019-06-27T07:46:55.320Z,98649.33
2019-06-27T07:49:25.537Z,98652.95
2019-06-27T07:51:55.842Z,98646.46
2019-06-27T07:54:26.175Z,98649.31
2019-06-27T07:56:56.390Z,98650.19
2019-06-27T07:59:26.618Z,98653.17
2019-06-27T08:01:56.838Z,98659.09
2019-06-27T08:04:27.207Z,98652.18
2019-06-27T08:06:57.425Z,98656.05
2019-06-27T08:09:27.758Z,98654.59
2019-06-27T08:11:58.064Z,98648.84
2019-06-27T08:14:28.415Z,98650.63
2019-06-27T08:16:58.640Z,98654.95
2019-06-27T08:19:28.951Z,98663.77
2019-06-27T08:21:59.235Z,98656.49
2019-06-27T08:24:29.701Z,98654.97
2019-06-27T08:26:59.905Z,98653.92
2019-06-27T08:29:30.112Z,98654.13
2019-06-27T08:32:00.374Z,98651.80
2019-06-27T08:34:30.594Z,98645.52
2019-06-27T08:37:00.901Z,98643.59
2019-06-27T08:39:31.197Z,98645.02
2019-06-27T08:42:01.463Z,98648.61
2019-06-27T08:44:31.669Z,98652.35
2019-06-27T08:47:01.899Z,98655.59
2019-06-27T08:49:32.119Z,98653.16
2019-06-27T08:52:02.328Z,98660.88
2019-06-27T08:54:32.575Z,98650.00
2019-06-27T08:57:02.806Z,98652.93
2019-06-27T08:59:33.056Z,98650.03
2019-06-27T09:02:08.648Z,98649.19
2019-06-27T09:04:35.395Z,98648.18
2019-06-27T09:07:05.879Z,98647.62
2019-06-27T09:09:36.057Z,98646.19
2019-06-27T09:12:06.269Z,98644.18
2019-06-27T09:14:36.583Z,98648.20
2019-06-27T09:17:06.815Z,98651.36
2019-06-27T09:19:37.030Z,98647.81
2019-06-27T09:22:07.303Z,98650.42
2019-06-27T09:24:37.543Z,98650.56
2019-06-27T09:27:07.763Z,98653.13
2019-06-27T09:29:38.000Z,98648.98
2019-06-27T09:32:20.992Z,98640.84
2019-06-27T09:34:40.137Z,98640.53
2019-06-27T09:37:10.346Z,98637.77
2019-06-27T09:39:40.598Z,98637.23
2019-06-27T09:42:10.802Z,98638.05
2019-06-27T09:44:42.315Z,98647.20
2019-06-27T09:47:12.696Z,98644.04
2019-06-27T09:49:42.934Z,98646.41
2019-06-27T09:52:13.131Z,98638.23
2019-06-27T09:54:43.331Z,98649.98
2019-06-27T09:57:13.719Z,98633.53
2019-06-27T09:59:43.888Z,98638.30
2019-06-27T10:02:14.181Z,98633.97
2019-06-27T10:04:44.438Z,98638.13
2019-06-27T10:07:14.647Z,98630.98
2019-06-27T10:09:46.396Z,98638.09
2019-06-27T10:12:16.782Z,98638.91
2019-06-27T10:14:46.971Z,98634.86
2019-06-27T10:17:17.168Z,98635.45
2019-06-27T10:19:47.408Z,98637.72
2019-06-27T10:22:17.612Z,98637.31
2019-06-27T10:24:47.836Z,98641.98
2019-06-27T10:27:18.135Z,98643.52
2019-06-27T10:29:48.382Z,98639.60
2019-06-27T10:32:18.616Z,98636.77
2019-06-27T10:34:48.852Z,98634.64
2019-06-27T10:37:19.075Z,98632.44
2019-06-27T10:39:49.314Z,98635.38
2019-06-27T10:42:19.520Z,98639.69
2019-06-27T10:44:49.762Z,98636.17
2019-06-27T10:47:19.955Z,98636.78
2019-06-27T10:49:50.245Z,98650.48
2019-06-27T10:52:20.630Z,98642.50
2019-06-27T10:54:50.862Z,98629.45
2019-06-27T10:57:21.131Z,98632.06
2019-06-27T10:59:51.348Z,98625.76
2019-06-27T11:02:21.541Z,98624.11
2019-06-27T11:04:52.584Z,98626.34
2019-06-27T11:07:22.807Z,98631.94
2019-06-27T11:09:53.072Z,98623.78
2019-06-27T11:12:23.473Z,98620.14
2019-06-27T11:14:59.322Z,98615.91
2019-06-27T11:17:25.850Z,98621.89
2019-06-27T11:19:56.155Z,98617.39
2019-06-27T11:22:26.335Z,98613.84
2019-06-27T11:24:56.690Z,98618.33
2019-06-27T11:27:27.481Z,98610.91
2019-06-27T11:29:57.912Z,98607.20
2019-06-27T11:32:28.177Z,98606.20
2019-06-27T11:34:58.391Z,98597.04
2019-06-27T11:37:28.612Z,98601.00
2019-06-27T11:39:58.970Z,98608.13
2019-06-27T11:42:30.004Z,98597.95
2019-06-27T11:45:00.379Z,98599.23
2019-06-27T11:47:34.273Z,98586.34
2019-06-27T11:50:02.775Z,98597.34
2019-06-27T11:52:33.125Z,98602.67
2019-06-27T11:55:03.507Z,98582.05
2019-06-27T11:57:33.910Z,98589.77
2019-06-27T12:00:05.464Z,98584.27
2019-06-27T12:02:35.734Z,98575.55
2019-06-27T12:05:07.560Z,98575.16
2019-06-27T12:07:37.780Z,98575.44
2019-06-27T12:10:08.916Z,98565.64
2019-06-27T12:12:39.149Z,98576.39
2019-06-27T12:15:09.794Z,98571.45
2019-06-27T12:17:40.008Z,98560.10
2019-06-27T12:20:10.827Z,98553.67
2019-06-27T12:22:41.108Z,98563.12
2019-06-27T12:25:11.727Z,98562.64
2019-06-27T12:27:41.967Z,98553.98
2019-06-27T12:30:13.422Z,98549.91
2019-06-27T12:32:51.582Z,98559.77
2019-06-27T12:35:15.939Z,98548.73
2019-06-27T12:37:46.166Z,98543.09
2019-06-27T12:40:17.605Z,98536.77
2019-06-27T12:42:49.079Z,98536.05
2019-06-27T12:45:19.536Z,98534.75
2019-06-27T12:47:49.956Z,98530.09
2019-06-27T12:50:21.875Z,98533.38
2019-06-27T12:52:52.116Z,98531.96
2019-06-27T12:55:22.375Z,98530.84
2019-06-27T12:57:52.614Z,98532.96
2019-06-27T13:00:23.883Z,98526.60
2019-06-27T13:02:54.131Z,98532.47
2019-06-27T13:05:24.393Z,98516.80
2019-06-27T13:07:54.606Z,98521.27
2019-06-27T13:10:29.586Z,98516.82
2019-06-27T13:12:59.823Z,98512.91
2019-06-27T13:15:30.012Z,98521.98
2019-06-27T13:18:00.239Z,98521.45
2019-06-27T13:20:30.450Z,98523.11
2019-06-27T13:23:00.797Z,98509.38
2019-06-27T13:25:34.135Z,98512.05
2019-06-27T13:28:03.182Z,98513.00
2019-06-27T13:30:33.546Z,98497.91
2019-06-27T13:33:03.801Z,98499.34
2019-06-27T13:35:34.009Z,98503.52
2019-06-27T13:38:04.214Z,98504.98
2019-06-27T13:40:34.525Z,98502.14
2019-06-27T13:43:04.817Z,98499.20
2019-06-27T13:45:35.112Z,98499.44
2019-06-27T13:48:05.435Z,98486.13
2019-06-27T13:50:35.687Z,98493.32
2019-06-27T13:53:06.002Z,98500.22
2019-06-27T13:55:36.239Z,98494.92
2019-06-27T13:58:06.425Z,98492.30
2019-06-27T14:00:45.779Z,98480.67
2019-06-27T14:03:16.057Z,98492.89
2019-06-27T14:05:46.245Z,98481.77
2019-06-27T14:08:16.474Z,98481.12
2019-06-27T14:10:46.664Z,98480.57
2019-06-27T14:13:16.883Z,98473.54
2019-06-27T14:15:47.082Z,98472.15
2019-06-27T14:18:19.341Z,98463.64
2019-06-27T14:20:49.416Z,98464.53
2019-06-27T14:23:19.674Z,98459.39
2019-06-27T14:25:49.860Z,98462.50
2019-06-27T14:28:20.140Z,98449.03
2019-06-27T14:30:50.352Z,98454.66
2019-06-27T14:33:20.602Z,98442.50
2019-06-27T14:35:50.949Z,98445.41
2019-06-27T14:38:21.189Z,98444.30
2019-06-27T14:40:51.414Z,98441.49
2019-06-27T14:43:21.627Z,98439.53
2019-06-27T14:45:52.526Z,98437.20
2019-06-27T14:48:22.764Z,98439.36
2019-06-27T14:50:52.972Z,98429.70
2019-06-27T14:53:23.232Z,98436.10
2019-06-27T14:55:54.095Z,98425.13
2019-06-27T14:58:24.295Z,98429.29
2019-06-27T15:00:54.552Z,98425.33
2019-06-27T15:03:24.838Z,98417.09
2019-06-27T15:05:55.111Z,98421.27
2019-06-27T15:08:25.310Z,98416.48
2019-06-27T15:10:55.553Z,98420.19
2019-06-27T15:13:25.800Z,98416.59
2019-06-27T15:16:10.688Z,98414.45
2019-06-27T15:18:28.010Z,98410.86
2019-06-27T15:20:58.271Z,98416.45
2019-06-27T15:23:29.310Z,98409.99
2019-06-27T15:25:59.622Z,98429.95
2019-06-27T15:28:34.103Z,98418.67
2019-06-27T15:31:02.688Z,98416.35
2019-06-27T15:33:32.895Z,98415.16
2019-06-27T15:36:03.132Z,98404.94
2019-06-27T15:38:33.320Z,98415.70
2019-06-27T15:41:03.559Z,98418.74
2019-06-27T15:43:33.755Z,98410.29
2019-06-27T15:46:03.996Z,98403.66
2019-06-27T15:48:34.221Z,98407.23
2019-06-27T15:51:04.430Z,98408.24
2019-06-27T15:53:34.670Z,98400.85
2019-06-27T15:56:04.915Z,98387.52
2019-06-27T15:58:35.140Z,98386.86
2019-06-27T16:01:05.412Z,98381.19
2019-06-27T16:03:35.735Z,98382.19
2019-06-27T16:06:10.245Z,98384.36
2019-06-27T16:08:38.036Z,98383.92
2019-06-27T16:11:08.340Z,98383.27
2019-06-27T16:13:38.538Z,98388.19
2019-06-27T16:16:08.758Z,98383.97
2019-06-27T16:18:40.982Z,98381.58
2019-06-27T16:21:16.636Z,98387.91
2019-06-27T16:23:46.780Z,98392.05
2019-06-27T16:26:17.118Z,98382.61
2019-06-27T16:28:47.332Z,98379.77
2019-06-27T16:31:17.599Z,98388.44
2019-06-27T16:33:47.811Z,98384.48
2019-06-27T16:36:25.386Z,98390.08
2019-06-27T16:38:49.947Z,98382.45
2019-06-27T16:41:20.193Z,98386.06
2019-06-27T16:43:50.377Z,98386.39
2019-06-27T16:46:21.119Z,98387.41
2019-06-27T16:48:51.329Z,98393.81
2019-06-27T16:51:21.566Z,98391.58
2019-06-27T16:53:51.766Z,98385.27
2019-06-27T16:56:21.241Z,98378.46
2019-06-27T16:58:51.355Z,98388.26
2019-06-27T17:01:21.565Z,98392.41
2019-06-27T17:03:51.841Z,98400.34
2019-06-27T17:06:21.282Z,98392.34
2019-06-27T17:08:50.625Z,98387.27
2019-06-27T17:11:19.998Z,98392.98
2019-06-27T17:13:50.106Z,98392.42
2019-06-27T17:16:22.203Z,98390.92
2019-06-27T17:18:50.657Z,98389.45
2019-06-27T17:21:20.135Z,98394.10
2019-06-27T17:23:49.535Z,98395.45
2019-06-27T17:26:18.931Z,98393.16
2019-06-27T17:28:48.425Z,98391.00
2019-06-27T17:31:17.863Z,98403.28
2019-06-27T17:33:47.961Z,98397.69
2019-06-27T17:36:18.179Z,98403.32
2019-06-27T17:38:47.649Z,98401.97
2019-06-27T17:41:17.742Z,98407.70
2019-06-27T17:43:47.235Z,98403.81
2019-06-27T17:46:16.810Z,98400.00
2019-06-27T17:48:46.190Z,98403.21
2019-06-27T17:51:15.597Z,98406.42
2019-06-27T17:53:45.703Z,98405.05
2019-06-27T17:56:15.180Z,98404.11
2019-06-27T17:58:44.631Z,98411.15
2019-06-27T18:01:13.970Z,98401.86
2019-06-27T18:03:43.377Z,98398.84
2019-06-27T18:06:12.733Z,98406.15
2019-06-27T18:08:42.087Z,98405.78
2019-06-27T18:11:11.494Z,98402.97
2019-06-27T18:13:40.867Z,98405.05
2019-06-27T18:16:10.213Z,98403.18
2019-06-27T18:18:39.627Z,98407.13
2019-06-27T18:21:09.023Z,98403.49
2019-06-27T18:23:39.148Z,98401.36
2019-06-27T18:26:08.595Z,98408.71
2019-06-27T18:28:37.956Z,98414.49
2019-06-27T18:31:07.368Z,98413.98
2019-06-27T18:33:36.705Z,98408.06
2019-06-27T18:36:06.092Z,98414.02
2019-06-27T18:38:35.580Z,98409.23
2019-06-27T18:41:04.994Z,98406.89
2019-06-27T18:43:34.401Z,98409.39
2019-06-27T18:46:03.778Z,98409.04
2019-06-27T18:48:33.208Z,98415.63
2019-06-27T18:51:02.602Z,98414.33
2019-06-27T18:53:32.108Z,98410.56
2019-06-27T18:56:01.506Z,98410.61
2019-06-27T18:58:30.841Z,98407.81
2019-06-27T19:01:00.244Z,98416.02
2019-06-27T19:03:30.458Z,98417.27
2019-06-27T19:05:59.959Z,98421.16
2019-06-27T19:08:41.614Z,98424.19
2019-06-27T19:11:11.048Z,98424.88
2019-06-27T19:13:40.498Z,98427.11
2019-06-27T19:16:09.837Z,98431.02
2019-06-27T19:18:46.805Z,98432.09
2019-06-27T19:21:24.562Z,98439.03
2019-06-27T19:23:56.435Z,98450.65
2019-06-27T19:26:26.637Z,98451.69
2019-06-27T19:28:56.892Z,98453.06
2019-06-27T19:31:26.376Z,98454.44
2019-06-27T19:33:56.493Z,98454.48
2019-06-27T19:36:26.841Z,98457.98
2019-06-27T19:38:57.073Z,98459.88
2019-06-27T19:41:26.627Z,98463.68
2019-06-27T19:43:55.983Z,98469.81
2019-06-27T19:46:26.282Z,98466.16
2019-06-27T19:48:55.731Z,98476.02
2019-06-27T19:51:27.591Z,98476.05
2019-06-27T19:54:10.642Z,98480.84
2019-06-27T19:56:41.737Z,98476.87
2019-06-27T19:59:11.070Z,98482.39
2019-06-27T20:01:40.421Z,98479.49
2019-06-27T20:04:09.886Z,98482.77
2019-06-27T20:06:39.258Z,98486.02
2019-06-27T20:09:08.693Z,98490.41
2019-06-27T20:11:38.958Z,98491.80
2019-06-27T20:14:09.249Z,98489.66
2019-06-27T20:16:38.722Z,98492.59
2019-06-27T20:19:08.142Z,98491.55
2019-06-27T20:21:38.303Z,98491.95
2019-06-27T20:24:07.893Z,98494.25
2019-06-27T20:26:37.337Z,98493.27
2019-06-27T20:29:07.456Z,98491.91
2019-06-27T20:31:36.949Z,98497.05
2019-06-27T20:34:07.128Z,98496.12
2019-06-27T20:36:37.341Z,98501.39
2019-06-27T20:39:07.273Z,98497.05
2019-06-27T20:41:36.638Z,98500.95
2019-06-27T20:44:06.014Z,98507.92
2019-06-27T20:46:35.506Z,98514.21
2019-06-27T20:49:04.956Z,98516.84
2019-06-27T20:51:34.316Z,98516.30
2019-06-27T20:54:03.806Z,98526.89
2019-06-27T20:56:33.166Z,98527.00
2019-06-27T20:59:02.576Z,98534.99
2019-06-27T21:01:32.792Z,98528.65
2019-06-27T21:04:02.270Z,98525.43
2019-06-27T21:06:31.633Z,98538.32
2019-06-27T21:09:01.006Z,98544.25
2019-06-27T21:11:30.441Z,98542.86
2019-06-27T21:13:59.852Z,98543.41
2019-06-27T21:16:29.263Z,98546.78
2019-06-27T21:18:58.720Z,98547.63
2019-06-27T21:21:28.100Z,98552.13
2019-06-27T21:23:57.530Z,98550.89
2019-06-27T21:26:26.940Z,98546.03
2019-06-27T21:28:56.361Z,98541.81
2019-06-27T21:31:25.722Z,98543.88
2019-06-27T21:33:55.826Z,98543.30
2019-06-27T21:36:25.281Z,98547.88
2019-06-27T21:39:07.122Z,98553.52
2019-06-27T21:41:25.737Z,98554.80
2019-06-27T21:43:55.824Z,98562.14
2019-06-27T21:46:26.046Z,98557.54
2019-06-27T21:48:56.263Z,98556.06
2019-06-27T21:51:26.464Z,98559.22
2019-06-27T21:53:56.678Z,98562.63
2019-06-27T21:56:26.934Z,98560.87
2019-06-27T21:58:57.350Z,98563.26
2019-06-27T22:01:27.973Z,98560.84
2019-06-27T22:03:58.459Z,98563.83
2019-06-27T22:06:31.183Z,98564.50
2019-06-27T22:09:01.532Z,98565.00
2019-06-27T22:11:31.752Z,98574.97
2019-06-27T22:14:02.010Z,98575.06
2019-06-27T22:16:32.209Z,98574.50
2019-06-27T22:19:02.481Z,98571.77
2019-06-27T22:21:32.701Z,98574.42
2019-06-27T22:24:04.738Z,98578.91
2019-06-27T22:26:35.027Z,98581.77
2019-06-27T22:29:05.311Z,98579.22
2019-06-27T22:31:35.619Z,98579.72
2019-06-27T22:34:05.857Z,98581.91
2019-06-27T22:36:35.325Z,98580.09
2019-06-27T22:39:36.239Z,98586.25
2019-06-27T22:42:12.154Z,98588.83
2019-06-27T22:45:00.415Z,98581.43
2019-06-27T22:47:49.308Z,98585.12
2019-06-27T22:50:39.435Z,98585.30
2019-06-27T22:53:11.288Z,98587.61
2019-06-27T22:55:41.651Z,98584.48
2019-06-27T22:58:11.849Z,98578.59
2019-06-27T23:00:42.152Z,98575.97
2019-06-27T23:03:12.355Z,98579.00
2019-06-27T23:05:42.701Z,98579.34
2019-06-27T23:08:12.921Z,98578.19
2019-06-27T23:10:43.119Z,98574.39
2019-06-27T23:13:13.476Z,98571.13
2019-06-27T23:15:44.516Z,98577.42
2019-06-27T23:18:14.747Z,98575.16
2019-06-27T23:20:45.024Z,98576.36
2019-06-27T23:23:15.269Z,98569.47
2019-06-27T23:25:45.474Z,98569.72
2019-06-27T23:28:15.718Z,98570.05
2019-06-27T23:30:45.937Z,98573.52
2019-06-27T23:33:16.154Z,98571.55
2019-06-27T23:35:46.350Z,98569.06
2019-06-27T23:38:16.579Z,98573.21
2019-06-27T23:40:46.870Z,98574.05
2019-06-27T23:43:17.076Z,98573.22
2019-06-27T23:45:47.567Z,98584.16
2019-06-27T23:48:17.892Z,98582.83
2019-06-27T23:50:48.082Z,98586.70
2019-06-27T23:53:18.311Z,98582.73
2019-06-27T23:55:48.619Z,98581.30
2019-06-27T23:58:18.823Z,98584.14
